Time;durP1;ratioP1;P1;durP2;ratioP2;P2;SDS_P1;SDS_P2;PMS_P1;PMS_P2;Temp;Humidity;BMP_temperature;BMP_pressure;BME280_temperature;BME280_humidity;BME280_pressure;Samples;Min_cycle;Max_cycle;Signal;HPM_P1;HPM_P2
2023/08/11 00:02:25;;;;;;;15.10;8.63;;;13.40;99.90;;;;;;5034085;28;20224;-87
2023/08/11 00:04:51;;;;;;;13.52;7.72;;;13.40;99.90;;;;;;5002275;28;20192;-86
2023/08/11 00:07:16;;;;;;;12.82;7.38;;;13.40;99.90;;;;;;5018002;28;20212;-86
2023/08/11 00:13:06;;;;;;;12.07;7.43;;;13.50;99.90;;;;;;5286240;22;20253;-88
2023/08/11 00:15:37;;;;;;;19.52;8.20;;;13.50;99.90;;;;;;5055360;28;20213;-86
2023/08/11 00:18:03;;;;;;;14.07;8.15;;;13.50;99.90;;;;;;5059118;28;20191;-86
2023/08/11 00:21:18;;;;;;;10.25;7.47;;;13.50;99.90;;;;;;5061032;28;20582;-87
2023/08/11 00:27:06;;;;;;;10.73;7.47;;;13.40;99.90;;;;;;5080921;28;20213;-86
2023/08/11 00:29:32;;;;;;;13.65;7.47;;;13.30;99.90;;;;;;5045044;28;20179;-87
2023/08/11 00:31:58;;;;;;;11.77;6.53;;;13.30;99.90;;;;;;5029705;28;20236;-87
2023/08/11 00:34:23;;;;;;;10.73;6.78;;;13.30;99.90;;;;;;5045441;28;20186;-87
2023/08/11 00:36:49;;;;;;;10.43;7.43;;;13.30;99.90;;;;;;5064622;28;20183;-86
2023/08/11 00:39:20;;;;;;;14.75;7.28;;;13.30;99.90;;;;;;5032551;28;20175;-87
2023/08/11 00:41:46;;;;;;;11.55;7.00;;;13.20;99.90;;;;;;5051242;28;20179;-87
2023/08/11 00:44:11;;;;;;;13.10;8.15;;;13.20;99.90;;;;;;5062938;28;20189;-87
2023/08/11 00:46:37;;;;;;;14.23;7.43;;;13.20;99.90;;;;;;5033341;28;20187;-87
2023/08/11 00:49:03;;;;;;;11.27;6.90;;;13.20;99.90;;;;;;5085652;28;20245;-86
2023/08/11 00:51:29;;;;;;;11.32;6.82;;;13.20;99.90;;;;;;5050281;28;20206;-87
2023/08/11 00:54:06;;;;;;;13.88;7.03;;;13.10;99.90;;;;;;5042045;28;20228;-88
2023/08/11 01:00:01;;;;;;;13.75;7.03;;;13.10;99.90;;;;;;5076200;28;20166;-88
2023/08/11 01:12:33;;;;;;;11.45;7.20;;;13.00;99.90;;;;;;5014414;28;20264;-88
2023/08/11 01:18:19;;;;;;;13.00;7.53;;;13.10;99.90;;;;;;4994859;28;20236;-87
2023/08/11 01:24:15;;;;;;;10.43;6.60;;;13.10;99.90;;;;;;5003468;28;20193;-87
2023/08/11 01:30:10;;;;;;;10.88;6.75;;;13.20;99.90;;;;;;4995883;28;20243;-87
2023/08/11 01:39:33;;;;;;;9.30;6.75;;;13.10;99.90;;;;;;5016804;28;20234;-87
2023/08/11 01:41:58;;;;;;;14.68;7.03;;;13.00;99.90;;;;;;5036816;28;20175;-87
2023/08/11 01:44:25;;;;;;;12.13;7.97;;;13.00;99.90;;;;;;5036518;28;20184;-87
2023/08/11 01:46:54;;;;;;;12.48;7.03;;;13.00;99.90;;;;;;5053194;28;20255;-87
2023/08/11 01:53:16;;;;;;;9.13;6.22;;;13.10;99.90;;;;;;5075088;28;20155;-86
2023/08/11 01:59:13;;;;;;;11.35;7.18;;;13.10;99.90;;;;;;5074971;28;20659;-87
2023/08/11 02:05:01;;;;;;;15.00;7.03;;;;;;;;;;5074772;28;20557;-86
2023/08/11 02:11:00;;;;;;;14.82;7.15;;;12.80;99.90;;;;;;5074765;28;20193;-86
2023/08/11 02:13:25;;;;;;;12.25;6.97;;;12.70;99.90;;;;;;5040695;28;20234;-86
2023/08/11 02:15:51;;;;;;;9.93;6.10;;;;;;;;;;5074799;28;20186;-87
2023/08/11 02:18:17;;;;;;;9.80;6.55;;;;;;;;;;5057940;28;20233;-87
2023/08/11 02:20:43;;;;;;;17.48;6.53;;;;;;;;;;5040598;28;20632;-87
2023/08/11 02:23:59;;;;;;;19.05;7.53;;;12.80;99.90;;;;;;5075095;28;20207;-87
2023/08/11 02:29:49;;;;;;;13.43;7.30;;;;;;;;;;5074339;28;20183;-86
2023/08/11 02:35:37;;;;;;;10.02;6.50;;;;;;;;;;5074451;28;20178;-87
2023/08/11 02:42:02;;;;;;;12.20;6.88;;;12.40;99.90;;;;;;5074090;28;20166;-86
2023/08/11 02:44:28;;;;;;;13.68;7.63;;;12.60;99.90;;;;;;5021438;28;20180;-87
2023/08/11 02:46:54;;;;;;;10.65;6.72;;;;;;;;;;5038166;28;20176;-87
2023/08/11 02:52:43;;;;;;;11.38;6.72;;;12.60;99.90;;;;;;5074495;28;20162;-87
2023/08/11 02:55:11;;;;;;;11.13;6.53;;;12.60;99.90;;;;;;5057114;28;20194;-87
2023/08/11 02:57:37;;;;;;;11.38;6.68;;;;;;;;;;5076015;28;20251;-85
2023/08/11 03:00:13;;;;;;;10.30;5.32;;;12.50;99.90;;;;;;5059033;28;20190;-86
2023/08/11 03:02:39;;;;;;;15.85;7.72;;;12.50;99.90;;;;;;5074502;28;20155;-86
2023/08/11 03:05:07;;;;;;;13.00;7.18;;;12.50;99.90;;;;;;5074866;28;20236;-86
2023/08/11 03:07:36;;;;;;;13.25;7.85;;;12.40;99.90;;;;;;5074856;28;20209;-86
2023/08/11 03:10:03;;;;;;;18.45;9.60;;;12.40;99.90;;;;;;5094891;28;20172;-86
2023/08/11 03:12:28;;;;;;;12.40;8.45;;;12.50;99.90;;;;;;5074185;28;20288;-86
2023/08/11 03:14:55;;;;;;;10.68;7.05;;;12.50;99.90;;;;;;5039453;28;20183;-86
2023/08/11 03:17:21;;;;;;;13.48;8.15;;;12.50;99.90;;;;;;5055673;28;20273;-87
2023/08/11 03:19:47;;;;;;;16.40;7.30;;;12.30;99.90;;;;;;5073656;28;20266;-86
2023/08/11 03:22:19;;;;;;;14.38;7.30;;;12.40;99.90;;;;;;5055653;28;20678;-87
2023/08/11 03:24:45;;;;;;;11.38;7.20;;;12.50;99.90;;;;;;5055561;28;20179;-87
2023/08/11 03:27:14;;;;;;;16.95;8.90;;;12.40;99.90;;;;;;5038939;28;20189;-87
2023/08/11 03:29:54;;;;;;;19.13;8.20;;;12.40;99.90;;;;;;5056349;28;20163;-87
2023/08/11 03:35:52;;;;;;;15.30;8.25;;;12.50;99.90;;;;;;5073528;28;20580;-88
2023/08/11 03:41:39;;;;;;;14.98;8.25;;;12.40;99.90;;;;;;5073460;28;20159;-91
2023/08/11 03:44:05;;;;;;;16.95;9.55;;;12.50;99.90;;;;;;5055593;28;20213;-90
2023/08/11 03:46:31;;;;;;;16.58;8.00;;;12.40;99.90;;;;;;5055443;28;20178;-89
2023/08/11 03:48:57;;;;;;;16.15;8.57;;;12.40;99.90;;;;;;5038969;28;20567;-89
2023/08/11 03:51:22;;;;;;;14.35;7.90;;;12.40;99.90;;;;;;5038619;28;20357;-89
2023/08/11 03:53:48;;;;;;;12.63;7.47;;;;;;;;;;5042483;28;20779;-90
2023/08/11 03:56:14;;;;;;;20.13;8.07;;;;;;;;;;5059012;28;20610;-90
2023/08/11 03:58:40;;;;;;;18.25;8.43;;;13.00;99.90;;;;;;5042476;28;20183;-89
2023/08/11 04:01:06;;;;;;;17.35;8.60;;;;;;;;;;5026027;28;20171;-91
2023/08/11 04:03:32;;;;;;;22.15;9.07;;;12.50;99.90;;;;;;5059183;28;20579;-91
2023/08/11 04:05:58;;;;;;;17.42;8.05;;;12.80;99.90;;;;;;5042650;28;20177;-90
2023/08/11 04:08:27;;;;;;;14.20;8.82;;;12.50;99.90;;;;;;5058841;28;20215;-91
2023/08/11 04:10:54;;;;;;;26.60;9.85;;;12.80;99.90;;;;;;5026362;28;20182;-90
2023/08/11 04:13:20;;;;;;;13.57;8.20;;;12.90;99.90;;;;;;5058533;28;20230;-90
2023/08/11 04:15:47;;;;;;;14.95;7.53;;;13.00;99.90;;;;;;5042428;28;20650;-90
2023/08/11 04:18:13;;;;;;;14.23;7.90;;;12.90;99.90;;;;;;5059233;28;20219;-92
2023/08/11 04:20:39;;;;;;;13.48;8.80;;;13.10;99.90;;;;;;5046142;28;20267;-90
2023/08/11 04:23:05;;;;;;;13.13;7.90;;;13.20;99.90;;;;;;5064350;28;20185;-90
2023/08/11 04:25:31;;;;;;;16.58;9.13;;;13.30;99.90;;;;;;5066371;28;20241;-89
2023/08/11 04:27:57;;;;;;;11.93;7.90;;;13.40;99.90;;;;;;5069966;28;20203;-90
2023/08/11 04:30:23;;;;;;;15.50;8.55;;;13.60;99.90;;;;;;5062520;28;20253;-91
2023/08/11 04:32:48;;;;;;;15.13;8.10;;;13.70;99.90;;;;;;5025874;28;20187;-92
2023/08/11 04:35:14;;;;;;;15.77;9.52;;;13.80;99.90;;;;;;5041699;28;20179;-90
2023/08/11 04:37:41;;;;;;;18.20;8.75;;;13.90;99.90;;;;;;5076288;28;20237;-91
2023/08/11 04:40:10;;;;;;;13.30;7.32;;;14.00;99.90;;;;;;5076886;28;20232;-90
2023/08/11 04:42:37;;;;;;;15.60;8.05;;;14.10;99.90;;;;;;5058559;28;20278;-92
2023/08/11 04:45:03;;;;;;;14.82;8.07;;;14.10;99.90;;;;;;5058431;28;20258;-91
2023/08/11 04:47:29;;;;;;;12.73;7.15;;;14.10;99.90;;;;;;5058382;28;20203;-92
2023/08/11 04:49:55;;;;;;;12.55;7.80;;;14.10;99.90;;;;;;5042051;28;20175;-93
2023/08/11 04:52:21;;;;;;;16.65;7.28;;;14.10;99.90;;;;;;5076417;28;20311;-93
2023/08/11 04:54:46;;;;;;;12.40;8.00;;;14.10;99.90;;;;;;5058336;28;20651;-92
2023/08/11 04:57:12;;;;;;;14.10;7.78;;;14.20;99.90;;;;;;5049223;28;20187;-91
2023/08/11 04:59:38;;;;;;;14.75;8.13;;;14.20;99.90;;;;;;5052998;28;20186;-90
2023/08/11 05:02:03;;;;;;;9.80;7.13;;;14.20;99.90;;;;;;5058963;28;20273;-87
2023/08/11 05:04:29;;;;;;;14.63;7.90;;;14.20;99.90;;;;;;5055920;28;20189;-87
2023/08/11 05:06:55;;;;;;;11.25;7.20;;;14.30;99.90;;;;;;5073318;28;20159;-90
2023/08/11 05:09:20;;;;;;;12.80;8.32;;;14.30;99.90;;;;;;5073066;28;20211;-89
2023/08/11 05:11:46;;;;;;;13.75;8.18;;;14.50;99.90;;;;;;5075929;28;20662;-89
2023/08/11 05:14:14;;;;;;;16.58;8.23;;;14.60;99.90;;;;;;5074861;28;20242;-89
2023/08/11 05:16:39;;;;;;;17.65;8.57;;;14.70;99.90;;;;;;5074364;28;20175;-88
2023/08/11 05:19:05;;;;;;;13.43;7.53;;;14.80;99.90;;;;;;5056855;28;20650;-87
2023/08/11 05:21:31;;;;;;;11.93;7.03;;;14.90;99.90;;;;;;5058361;28;20213;-87
2023/08/11 05:23:56;;;;;;;12.80;6.82;;;15.00;99.90;;;;;;5059385;28;20180;-87
2023/08/11 05:26:22;;;;;;;11.38;7.53;;;15.20;99.90;;;;;;5079645;28;20162;-93
2023/08/11 05:28:48;;;;;;;11.95;8.27;;;;;;;;;;5075525;28;20215;-87
2023/08/11 05:31:14;;;;;;;24.88;11.57;;;15.50;99.90;;;;;;5075512;28;20233;-87
2023/08/11 05:33:40;;;;;;;11.48;7.07;;;;;;;;;;5057218;28;20632;-86
2023/08/11 05:36:07;;;;;;;12.32;7.13;;;15.80;99.90;;;;;;5056866;28;20171;-86
2023/08/11 05:38:32;;;;;;;11.32;6.40;;;15.80;99.90;;;;;;5074785;28;20183;-88
2023/08/11 05:40:58;;;;;;;9.27;5.47;;;16.00;99.90;;;;;;5056797;28;20187;-86
2023/08/11 05:43:23;;;;;;;9.68;5.60;;;16.40;99.90;;;;;;5056860;28;20183;-87
2023/08/11 05:45:49;;;;;;;9.68;5.57;;;;;;;;;;5074600;28;20612;-86
2023/08/11 05:48:15;;;;;;;7.65;5.05;;;16.20;99.90;;;;;;5074967;28;20206;-86
2023/08/11 05:50:45;;;;;;;9.85;6.05;;;16.40;99.90;;;;;;5024002;28;20186;-87
2023/08/11 05:53:10;;;;;;;7.85;5.05;;;16.50;99.90;;;;;;5074980;28;20187;-87
2023/08/11 05:55:36;;;;;;;7.88;5.30;;;16.80;99.90;;;;;;5057157;28;20167;-86
2023/08/11 05:58:02;;;;;;;8.25;5.50;;;16.80;99.90;;;;;;5057016;28;20261;-86
2023/08/11 06:00:27;;;;;;;8.60;5.15;;;16.50;99.90;;;;;;5040034;28;20175;-86
2023/08/11 06:02:53;;;;;;;8.20;5.30;;;;;;;;;;5057060;28;20214;-87
2023/08/11 06:05:21;;;;;;;6.35;4.43;;;17.40;99.90;;;;;;5057749;28;20176;-86
2023/08/11 06:07:48;;;;;;;8.70;5.05;;;17.10;99.90;;;;;;5056384;28;20668;-85
2023/08/11 06:10:14;;;;;;;9.85;5.22;;;17.30;99.90;;;;;;5056932;28;20636;-87
2023/08/11 06:12:39;;;;;;;7.38;4.95;;;17.30;99.90;;;;;;5056259;28;20317;-86
2023/08/11 06:15:06;;;;;;;5.80;3.90;;;17.40;99.90;;;;;;5039728;28;20184;-88
2023/08/11 06:17:31;;;;;;;5.10;4.13;;;17.50;99.90;;;;;;5040274;28;20194;-89
2023/08/11 06:19:57;;;;;;;5.88;4.60;;;;;;;;;;5074871;28;20175;-87
2023/08/11 06:22:24;;;;;;;13.30;5.05;;;17.80;99.90;;;;;;5056469;28;20183;-87
2023/08/11 06:24:50;;;;;;;7.60;4.90;;;17.90;99.90;;;;;;5056489;28;20546;-88
2023/08/11 06:27:15;;;;;;;9.02;4.90;;;18.00;99.90;;;;;;5056376;28;20183;-88
2023/08/11 06:29:41;;;;;;;6.78;4.28;;;18.00;99.90;;;;;;5056162;28;20185;-87
2023/08/11 06:32:07;;;;;;;7.72;4.68;;;18.10;99.90;;;;;;5056537;28;20629;-88
2023/08/11 06:34:33;;;;;;;6.15;4.85;;;18.20;99.90;;;;;;5055914;28;20182;-86
2023/08/11 06:36:58;;;;;;;7.68;4.50;;;18.30;99.90;;;;;;5039520;28;20186;-87
2023/08/11 06:39:24;;;;;;;7.53;4.68;;;18.40;99.90;;;;;;5055573;28;20712;-86
2023/08/11 06:41:50;;;;;;;9.75;5.20;;;18.40;99.90;;;;;;5039015;28;20621;-87
2023/08/11 06:44:16;;;;;;;9.88;3.78;;;;;;;;;;5055501;28;20171;-89
2023/08/11 06:46:42;;;;;;;7.05;4.35;;;18.70;99.90;;;;;;5073590;28;20175;-89
2023/08/11 06:49:08;;;;;;;5.75;4.38;;;18.10;99.90;;;;;;5039462;28;20260;-89
2023/08/11 06:51:34;;;;;;;5.85;4.05;;;;;;;;;;5074652;28;20174;-89
2023/08/11 06:53:59;;;;;;;7.55;4.70;;;18.80;99.90;;;;;;5073550;28;20228;-88
2023/08/11 06:56:25;;;;;;;5.15;3.58;;;18.90;99.90;;;;;;5039463;28;20183;-89
2023/08/11 06:58:52;;;;;;;5.35;3.80;;;19.00;99.90;;;;;;5023598;28;20183;-86
2023/08/11 07:01:18;;;;;;;5.40;3.70;;;19.10;99.90;;;;;;5056247;28;20185;-88
2023/08/11 07:03:47;;;;;;;5.97;3.58;;;19.20;99.90;;;;;;5056327;28;20187;-87
2023/08/11 07:06:13;;;;;;;8.70;4.95;;;19.30;99.90;;;;;;5059840;28;20182;-87
2023/08/11 07:08:39;;;;;;;4.88;3.25;;;19.80;99.90;;;;;;5043432;28;20302;-87
2023/08/11 07:11:05;;;;;;;4.07;3.15;;;19.50;99.90;;;;;;5057607;28;20274;-88
2023/08/11 07:13:32;;;;;;;5.05;2.90;;;;;;;;;;5088128;28;20231;-93
2023/08/11 07:15:57;;;;;;;4.65;3.20;;;19.60;99.90;;;;;;5094704;28;20183;-88
2023/08/11 07:18:24;;;;;;;3.78;2.35;;;;;;;;;;5039677;28;20690;-87
2023/08/11 07:20:50;;;;;;;4.32;2.70;;;20.10;99.90;;;;;;5073745;28;20179;-88
2023/08/11 07:23:16;;;;;;;5.95;2.90;;;19.90;99.90;;;;;;5073989;28;20171;-88
2023/08/11 07:25:43;;;;;;;3.20;2.90;;;20.00;99.90;;;;;;5076103;28;20179;-88
2023/08/11 07:28:09;;;;;;;5.57;3.17;;;19.90;99.10;;;;;;5081366;28;20217;-88
2023/08/11 07:30:36;;;;;;;4.65;2.30;;;20.10;99.90;;;;;;5047913;28;20187;-90
2023/08/11 07:33:02;;;;;;;2.83;1.95;;;19.90;99.90;;;;;;5061698;28;20564;-87
2023/08/11 07:35:28;;;;;;;5.53;2.30;;;20.00;97.50;;;;;;5060407;28;20175;-87
2023/08/11 07:37:54;;;;;;;2.70;2.17;;;20.10;97.70;;;;;;5043200;28;20466;-87
2023/08/11 07:40:20;;;;;;;4.80;2.05;;;20.20;96.90;;;;;;5043182;28;20221;-87
2023/08/11 07:42:47;;;;;;;4.15;2.65;;;20.20;96.70;;;;;;5043107;28;20683;-86
2023/08/11 07:45:13;;;;;;;2.35;1.73;;;20.20;95.80;;;;;;5059668;28;20647;-86
2023/08/11 07:47:39;;;;;;;3.47;2.20;;;20.20;94.60;;;;;;5078341;28;20211;-88
2023/08/11 07:50:05;;;;;;;1.73;1.48;;;20.30;94.70;;;;;;5060162;28;20627;-87
2023/08/11 07:52:31;;;;;;;2.55;2.17;;;20.40;94.10;;;;;;5060069;28;20546;-87
2023/08/11 07:54:57;;;;;;;2.17;1.95;;;20.50;94.20;;;;;;5059812;28;20186;-87
2023/08/11 07:57:22;;;;;;;2.97;1.70;;;20.50;93.20;;;;;;5060020;28;20264;-87
2023/08/11 07:59:48;;;;;;;2.38;1.83;;;20.50;93.00;;;;;;5027006;28;20614;-88
2023/08/11 08:02:15;;;;;;;2.67;1.70;;;20.50;93.60;;;;;;5059949;28;20206;-87
2023/08/11 08:04:42;;;;;;;2.83;1.80;;;20.60;92.90;;;;;;5043043;28;20520;-89
2023/08/11 08:07:08;;;;;;;2.47;1.60;;;20.60;92.80;;;;;;5076951;28;20181;-86
2023/08/11 08:09:34;;;;;;;2.80;1.88;;;20.70;92.20;;;;;;5059504;28;20199;-86
2023/08/11 08:12:01;;;;;;;2.28;1.80;;;20.90;90.60;;;;;;5042366;28;20273;-85
2023/08/11 08:14:27;;;;;;;2.80;1.60;;;20.80;90.00;;;;;;5042758;28;20594;-88
2023/08/11 08:16:53;;;;;;;2.17;1.77;;;21.00;92.10;;;;;;5079199;28;20175;-87
2023/08/11 08:19:20;;;;;;;2.28;1.52;;;20.80;89.30;;;;;;5065804;28;20544;-88
2023/08/11 08:21:49;;;;;;;1.70;1.60;;;20.90;90.00;;;;;;5064382;28;20179;-86
2023/08/11 08:24:15;;;;;;;2.25;1.63;;;21.00;84.80;;;;;;5078578;28;20199;-87
2023/08/11 08:26:41;;;;;;;2.53;1.60;;;21.00;86.30;;;;;;5077612;28;20174;-92
2023/08/11 08:29:07;;;;;;;1.90;1.60;;;21.00;86.60;;;;;;5081865;28;20214;-87
2023/08/11 08:31:33;;;;;;;2.00;1.67;;;21.10;87.90;;;;;;5065961;28;20184;-87
2023/08/11 08:34:00;;;;;;;3.42;2.10;;;21.20;88.60;;;;;;5081226;28;20213;-88
2023/08/11 08:36:26;;;;;;;2.28;1.38;;;21.40;84.90;;;;;;5078194;28;20198;-87
2023/08/11 08:38:52;;;;;;;1.70;1.58;;;21.40;84.90;;;;;;5076951;28;20257;-87
2023/08/11 08:41:24;;;;;;;1.67;1.52;;;21.60;83.10;;;;;;5076646;28;20748;-86
2023/08/11 08:43:53;;;;;;;1.83;1.50;;;21.70;85.40;;;;;;5076191;28;20254;-85
2023/08/11 08:46:29;;;;;;;5.13;1.63;;;21.80;84.50;;;;;;5076377;28;20171;-86
2023/08/11 08:49:11;;;;;;;2.45;1.55;;;22.00;82.70;;;;;;5061326;28;20211;-86
2023/08/11 08:51:39;;;;;;;1.50;1.40;;;22.00;79.20;;;;;;5076026;28;20213;-87
2023/08/11 08:54:08;;;;;;;1.85;1.55;;;22.20;79.50;;;;;;5070187;28;20218;-88
2023/08/11 08:56:36;;;;;;;2.13;1.60;;;22.30;81.30;;;;;;5080104;28;20176;-87
2023/08/11 08:59:01;;;;;;;1.88;1.40;;;22.50;77.70;;;;;;5066241;28;20179;-89
2023/08/11 09:01:28;;;;;;;1.92;1.58;;;22.50;77.30;;;;;;5041960;28;20197;-88
2023/08/11 09:03:56;;;;;;;4.20;1.70;;;22.40;79.50;;;;;;5077970;28;20276;-87
2023/08/11 09:06:25;;;;;;;5.00;1.50;;;22.70;76.80;;;;;;5075639;28;20179;-86
2023/08/11 09:08:50;;;;;;;2.10;1.38;;;22.80;78.40;;;;;;5075026;28;20292;-89
2023/08/11 09:11:16;;;;;;;2.63;1.42;;;22.90;72.10;;;;;;5075392;28;20202;-87
2023/08/11 09:13:44;;;;;;;1.48;1.30;;;22.80;72.20;;;;;;5056766;28;20328;-87
2023/08/11 09:16:11;;;;;;;2.10;1.20;;;22.70;73.30;;;;;;5041006;28;20179;-87
2023/08/11 09:18:37;;;;;;;3.28;1.40;;;22.70;71.90;;;;;;5057979;28;20183;-86
2023/08/11 09:21:03;;;;;;;2.97;1.65;;;22.70;72.10;;;;;;5075407;28;20678;-87
2023/08/11 09:23:29;;;;;;;3.22;1.95;;;22.80;73.60;;;;;;5058016;28;20175;-86
2023/08/11 09:25:55;;;;;;;1.17;1.08;;;22.90;68.90;;;;;;5056943;28;20628;-89
2023/08/11 09:28:21;;;;;;;3.10;1.50;;;22.60;70.40;;;;;;5075110;28;20210;-86
2023/08/11 09:30:48;;;;;;;2.53;1.65;;;22.20;71.10;;;;;;5057755;28;20642;-86
2023/08/11 09:33:14;;;;;;;2.42;1.60;;;21.90;71.60;;;;;;5075300;28;20237;-87
2023/08/11 09:35:41;;;;;;;2.78;1.58;;;21.80;72.10;;;;;;5040875;28;20179;-86
2023/08/11 09:38:07;;;;;;;1.48;1.38;;;21.60;70.80;;;;;;5075146;28;20179;-86
2023/08/11 09:40:33;;;;;;;2.90;1.23;;;21.50;70.50;;;;;;5057336;28;20696;-87
2023/08/11 09:42:59;;;;;;;3.05;1.65;;;21.40;71.50;;;;;;5057136;28;20221;-87
2023/08/11 09:45:25;;;;;;;1.92;1.60;;;21.30;71.60;;;;;;5040461;28;20258;-87
2023/08/11 09:47:51;;;;;;;3.85;1.60;;;21.30;71.70;;;;;;5057562;28;20656;-89
2023/08/11 09:50:17;;;;;;;4.25;2.75;;;21.30;71.10;;;;;;5056412;28;20176;-86
2023/08/11 09:52:43;;;;;;;3.80;1.40;;;21.30;74.10;;;;;;5056794;28;20175;-87
2023/08/11 09:55:10;;;;;;;5.03;1.67;;;21.40;71.30;;;;;;5040093;28;20186;-86
2023/08/11 09:57:39;;;;;;;2.08;1.38;;;21.70;70.80;;;;;;5056611;28;20183;-86
2023/08/11 10:00:11;;;;;;;3.22;1.85;;;22.10;71.00;;;;;;5074618;28;20175;-86
2023/08/11 10:02:43;;;;;;;2.40;1.42;;;22.10;69.20;;;;;;5057865;28;20172;-86
2023/08/11 10:05:10;;;;;;;3.33;1.10;;;22.00;70.80;;;;;;5074595;28;20674;-85
2023/08/11 10:07:40;;;;;;;1.40;1.13;;;22.00;68.90;;;;;;5074521;28;20248;-85
2023/08/11 10:10:17;;;;;;;2.40;1.50;;;22.10;69.00;;;;;;5056513;28;20210;-85
2023/08/11 10:13:00;;;;;;;2.00;1.35;;;22.10;68.80;;;;;;5056820;28;20313;-86
2023/08/11 10:15:30;;;;;;;3.50;1.70;;;22.00;70.70;;;;;;5074722;28;20203;-85
2023/08/11 10:17:57;;;;;;;2.60;1.50;;;21.90;70.30;;;;;;5074191;28;20700;-88
2023/08/11 10:20:23;;;;;;;2.75;1.90;;;21.80;70.80;;;;;;5056647;28;20361;-86
2023/08/11 10:22:50;;;;;;;2.50;1.70;;;21.70;70.50;;;;;;5056768;28;20175;-86
2023/08/11 10:25:16;;;;;;;1.58;1.13;;;21.70;73.30;;;;;;5074238;28;20175;-86
2023/08/11 10:27:43;;;;;;;2.75;1.48;;;21.60;70.90;;;;;;5056503;28;20241;-85
2023/08/11 10:30:12;;;;;;;2.10;1.30;;;21.70;68.00;;;;;;5074298;28;20286;-85
2023/08/11 10:32:38;;;;;;;2.53;1.25;;;21.80;68.30;;;;;;5074359;28;20658;-86
2023/08/11 10:35:16;;;;;;;6.03;1.40;;;22.20;68.70;;;;;;5056275;28;20240;-84
2023/08/11 10:37:42;;;;;;;3.15;1.90;;;22.70;66.50;;;;;;5056694;28;20181;-86
2023/08/11 10:40:12;;;;;;;2.45;1.40;;;23.00;66.40;;;;;;5039600;28;20632;-85
2023/08/11 10:42:41;;;;;;;1.60;1.50;;;22.90;66.80;;;;;;5041226;28;20183;-85
2023/08/11 10:45:11;;;;;;;3.72;1.80;;;22.60;67.10;;;;;;5073922;28;20638;-85
2023/08/11 10:47:38;;;;;;;2.53;1.42;;;22.30;68.20;;;;;;5074228;28;20202;-86
2023/08/11 10:50:08;;;;;;;2.65;1.55;;;22.10;69.60;;;;;;5056059;28;20232;-85
2023/08/11 10:52:34;;;;;;;2.67;2.13;;;21.90;70.70;;;;;;5074059;28;20194;-85
2023/08/11 10:55:02;;;;;;;1.92;1.48;;;21.80;71.00;;;;;;5055614;28;20178;-89
2023/08/11 10:57:30;;;;;;;3.83;1.40;;;21.70;70.70;;;;;;5073941;28;20171;-85
2023/08/11 10:59:56;;;;;;;2.38;1.48;;;21.60;69.90;;;;;;5039844;28;20179;-86
2023/08/11 11:02:22;;;;;;;3.90;2.20;;;21.50;69.60;;;;;;5022343;28;20185;-85
2023/08/11 11:04:50;;;;;;;2.97;1.50;;;21.50;67.70;;;;;;5074035;28;20659;-85
2023/08/11 11:07:15;;;;;;;2.97;1.80;;;21.40;67.70;;;;;;5073844;28;20697;-85
2023/08/11 11:09:41;;;;;;;2.78;1.58;;;21.40;69.30;;;;;;5040347;28;20195;-86
2023/08/11 11:12:07;;;;;;;1.92;1.38;;;21.30;68.30;;;;;;5056748;28;20658;-86
2023/08/11 11:14:32;;;;;;;5.90;1.55;;;21.30;69.00;;;;;;5056178;28;20231;-85
2023/08/11 11:16:59;;;;;;;7.72;1.90;;;21.30;70.80;;;;;;5074966;28;20230;-86
2023/08/11 11:19:26;;;;;;;1.58;1.25;;;21.30;70.80;;;;;;5056327;28;20285;-85
2023/08/11 11:21:52;;;;;;;2.90;1.40;;;21.30;69.80;;;;;;5073835;28;20177;-86
2023/08/11 11:24:18;;;;;;;1.45;1.23;;;21.30;69.00;;;;;;5039257;28;20273;-87
2023/08/11 11:26:44;;;;;;;2.30;1.48;;;21.30;69.50;;;;;;5074997;28;20222;-86
2023/08/11 11:29:10;;;;;;;1.63;1.38;;;21.30;72.10;;;;;;5057227;28;20211;-87
2023/08/11 11:31:38;;;;;;;3.55;2.10;;;21.40;71.20;;;;;;5071972;28;20179;-89
2023/08/11 11:34:04;;;;;;;2.17;1.45;;;21.70;68.90;;;;;;5091641;28;20352;-88
2023/08/11 11:36:31;;;;;;;4.47;2.00;;;22.00;68.20;;;;;;5046214;28;20199;-88
2023/08/11 11:38:57;;;;;;;1.77;1.17;;;22.40;68.80;;;;;;5075463;28;20182;-89
2023/08/11 11:41:22;;;;;;;1.58;1.13;;;22.80;67.50;;;;;;5055845;28;20175;-89
2023/08/11 11:43:50;;;;;;;3.08;1.42;;;23.20;63.70;;;;;;5073545;28;20217;-87
2023/08/11 11:46:20;;;;;;;3.70;1.13;;;23.40;62.50;;;;;;5073750;28;20175;-88
2023/08/11 11:48:55;;;;;;;5.80;2.42;;;23.70;67.80;;;;;;5055552;28;20282;-87
2023/08/11 11:51:29;;;;;;;1.92;1.20;;;24.00;64.10;;;;;;5080277;28;20176;-89
2023/08/11 11:53:58;;;;;;;1.52;1.10;;;24.20;59.80;;;;;;5081395;28;20168;-88
2023/08/11 11:56:26;;;;;;;2.88;1.60;;;24.20;55.60;;;;;;5056076;28;20216;-90
2023/08/11 11:58:52;;;;;;;3.13;1.20;;;24.20;55.80;;;;;;5073355;28;20236;-89
2023/08/11 12:01:25;;;;;;;1.08;1.00;;;24.30;55.70;;;;;;5022439;28;20612;-90
2023/08/11 12:03:51;;;;;;;1.60;1.27;;;24.30;55.00;;;;;;5040135;28;20582;-86
2023/08/11 12:06:18;;;;;;;1.38;1.08;;;24.40;56.90;;;;;;5073080;28;20705;-85
2023/08/11 12:08:44;;;;;;;1.48;1.20;;;24.40;56.70;;;;;;5039085;28;20242;-87
2023/08/11 12:11:12;;;;;;;1.63;1.10;;;23.90;58.70;;;;;;5077095;28;20201;-87
2023/08/11 12:16:59;;;;;;;1.52;1.15;;;23.20;61.40;;;;;;5077605;28;20180;-88
2023/08/11 12:19:25;;;;;;;8.38;1.95;;;22.90;62.60;;;;;;5059532;28;20274;-87
2023/08/11 12:21:51;;;;;;;2.65;1.60;;;22.60;64.10;;;;;;5042299;28;20241;-87
2023/08/11 12:24:16;;;;;;;1.10;1.00;;;22.40;64.60;;;;;;5025854;28;20175;-87
2023/08/11 12:26:42;;;;;;;1.58;1.23;;;22.30;64.70;;;;;;5059429;28;20253;-86
2023/08/11 12:29:08;;;;;;;4.25;1.85;;;22.10;64.70;;;;;;5059644;28;20235;-86
2023/08/11 12:31:33;;;;;;;3.67;1.48;;;22.10;66.10;;;;;;5026460;28;20172;-86
2023/08/11 12:33:59;;;;;;;1.98;1.27;;;22.00;67.00;;;;;;5042627;28;20544;-88
2023/08/11 12:36:24;;;;;;;2.67;1.52;;;21.90;65.90;;;;;;5076629;28;20175;-88
2023/08/11 12:38:50;;;;;;;1.42;1.27;;;21.90;67.20;;;;;;5076563;28;20186;-86
2023/08/11 12:41:17;;;;;;;6.57;1.65;;;22.00;67.50;;;;;;5025649;28;20266;-88
2023/08/11 12:43:43;;;;;;;1.70;1.33;;;22.10;67.40;;;;;;5058675;28;20689;-91
2023/08/11 12:46:09;;;;;;;1.85;1.10;;;22.40;66.60;;;;;;5058956;28;20265;-91
2023/08/11 12:48:34;;;;;;;1.75;1.20;;;22.50;67.50;;;;;;5059280;28;20219;-91
2023/08/11 12:51:01;;;;;;;2.33;1.80;;;22.80;67.50;;;;;;5050493;28;20175;-91
2023/08/11 12:53:26;;;;;;;5.20;1.52;;;23.20;66.50;;;;;;5065819;28;20167;-94
2023/08/11 12:55:52;;;;;;;2.50;1.38;;;23.50;63.40;;;;;;5078335;28;20206;-91
2023/08/11 12:58:18;;;;;;;2.50;1.40;;;23.90;61.20;;;;;;5060070;28;20188;-91
2023/08/11 13:00:44;;;;;;;1.80;1.48;;;24.10;63.00;;;;;;5043084;28;20180;-90
2023/08/11 13:03:10;;;;;;;2.08;1.52;;;24.50;64.10;;;;;;5060446;28;20232;-91
2023/08/11 13:05:36;;;;;;;2.35;1.20;;;24.70;61.80;;;;;;5042250;28;20616;-89
2023/08/11 13:08:02;;;;;;;4.03;1.10;;;24.90;57.40;;;;;;5076720;28;20203;-91
2023/08/11 13:10:27;;;;;;;1.85;1.60;;;24.90;54.10;;;;;;5041905;28;20190;-91
2023/08/11 13:12:53;;;;;;;2.70;1.20;;;25.00;56.70;;;;;;5058126;28;20718;-89
2023/08/11 13:15:19;;;;;;;2.35;1.33;;;25.10;57.60;;;;;;5042537;28;20190;-89
2023/08/11 13:17:45;;;;;;;1.77;1.15;;;25.10;55.60;;;;;;5059917;28;20282;-89
2023/08/11 13:20:12;;;;;;;1.30;1.20;;;25.00;54.60;;;;;;5061780;28;20191;-90
2023/08/11 13:22:38;;;;;;;4.13;1.40;;;25.20;55.00;;;;;;5045255;28;20195;-90
2023/08/11 13:25:06;;;;;;;3.95;1.70;;;25.00;53.80;;;;;;5062614;28;20179;-90
2023/08/11 13:27:32;;;;;;;5.65;1.65;;;25.00;55.90;;;;;;5081988;28;20174;-89
2023/08/11 13:29:58;;;;;;;1.63;1.15;;;25.30;56.40;;;;;;5065146;28;20179;-90
2023/08/11 13:32:23;;;;;;;1.80;1.30;;;25.40;54.50;;;;;;5065970;28;20488;-88
2023/08/11 13:34:49;;;;;;;1.20;1.08;;;25.40;53.90;;;;;;5082798;28;20262;-86
2023/08/11 13:37:15;;;;;;;2.00;1.50;;;25.50;53.80;;;;;;5070736;28;20209;-89
2023/08/11 13:39:40;;;;;;;2.08;1.20;;;25.80;54.60;;;;;;5083268;28;20195;-89
2023/08/11 13:42:09;;;;;;;4.38;1.25;;;25.40;54.00;;;;;;5041681;28;20267;-88
2023/08/11 13:44:35;;;;;;;1.65;1.10;;;25.10;53.90;;;;;;5074955;28;20207;-88
2023/08/11 13:47:00;;;;;;;3.58;1.70;;;24.70;54.20;;;;;;5075120;28;20277;-88
2023/08/11 13:49:26;;;;;;;1.52;1.40;;;24.60;55.50;;;;;;5040827;28;20231;-88
2023/08/11 13:51:51;;;;;;;1.48;1.00;;;24.70;56.50;;;;;;5042001;28;20526;-87
2023/08/11 13:54:17;;;;;;;2.72;1.30;;;25.10;56.50;;;;;;5040796;28;20683;-87
2023/08/11 13:56:43;;;;;;;2.53;1.42;;;25.40;53.90;;;;;;5040396;28;20191;-87
2023/08/11 13:59:08;;;;;;;2.70;1.63;;;25.30;54.10;;;;;;5057181;28;20218;-86
2023/08/11 14:01:34;;;;;;;2.38;1.52;;;25.00;53.20;;;;;;5057012;28;20194;-87
2023/08/11 14:04:00;;;;;;;2.03;1.45;;;24.70;53.20;;;;;;5074852;28;20180;-86
2023/08/11 14:06:26;;;;;;;2.13;1.45;;;24.50;55.70;;;;;;5056713;28;20232;-88